Time;durP1;ratioP1;P1;durP2;ratioP2;P2;SDS_P1;SDS_P2;PMS_P1;PMS_P2;Temp;Humidity;BMP_temperature;BMP_pressure;BME280_temperature;BME280_humidity;BME280_pressure;Samples;Min_cycle;Max_cycle;Signal;HPM_P1;HPM_P2
2023/07/03 00:01:23;;;;;;;7.57;6.60;;;;;;;-146.25;100.00;57403.91;5035149;28;20754;-84
2023/07/03 00:03:51;;;;;;;12.63;7.38;;;;;;;-146.25;100.00;57403.91;5046464;28;20311;-85
2023/07/03 00:06:19;;;;;;;8.45;6.00;;;;;;;-146.25;100.00;57403.91;5047127;28;20706;-87
2023/07/03 00:08:46;;;;;;;8.88;7.88;;;;;;;-146.25;100.00;57403.91;5045541;28;20788;-86
2023/07/03 00:11:14;;;;;;;11.82;7.53;;;;;;;-146.25;100.00;57403.91;5047183;28;20219;-86
2023/07/03 00:13:41;;;;;;;11.98;7.60;;;;;;;-146.25;100.00;57403.91;5046935;28;20254;-85
2023/07/03 00:16:08;;;;;;;10.15;7.15;;;;;;;-146.25;100.00;57403.91;5045711;28;20304;-86
2023/07/03 00:18:34;;;;;;;11.57;7.40;;;;;;;-146.25;100.00;57403.91;5047617;28;20329;-84
2023/07/03 00:21:01;;;;;;;11.27;7.43;;;;;;;-146.25;100.00;57403.91;5046867;28;20580;-86
2023/07/03 00:23:30;;;;;;;11.43;7.55;;;;;;;-146.25;100.00;57403.91;5047032;28;20280;-85
2023/07/03 00:25:57;;;;;;;7.10;6.43;;;;;;;-146.25;100.00;57403.91;5046913;28;20314;-86
2023/07/03 00:28:24;;;;;;;9.10;7.03;;;;;;;-146.25;100.00;57403.91;5046700;28;20608;-87
2023/07/03 00:30:51;;;;;;;7.75;6.88;;;;;;;-146.25;100.00;57403.91;5033796;28;20715;-86
2023/07/03 00:33:18;;;;;;;10.27;6.78;;;;;;;-146.25;100.00;57403.91;5047611;28;20230;-86
2023/07/03 00:35:45;;;;;;;11.00;8.23;;;;;;;-146.25;100.00;57403.91;5046627;28;20270;-85
2023/07/03 00:38:12;;;;;;;8.63;6.90;;;;;;;-146.25;100.00;57403.91;5046354;28;20225;-85
2023/07/03 00:40:41;;;;;;;13.25;8.05;;;;;;;-146.25;100.00;57403.91;5046932;28;20221;-86
2023/07/03 00:43:08;;;;;;;8.18;7.35;;;;;;;-146.25;100.00;57403.91;5047107;28;20222;-85
2023/07/03 00:45:37;;;;;;;8.85;6.88;;;;;;;-146.25;100.00;57403.91;5045465;28;20288;-84
2023/07/03 00:48:05;;;;;;;11.18;7.88;;;;;;;-146.25;100.00;57403.91;5045212;28;20230;-85
2023/07/03 00:50:35;;;;;;;7.82;6.95;;;;;;;-146.25;100.00;57403.91;5026476;28;20258;-87
2023/07/03 00:53:04;;;;;;;9.45;7.93;;;;;;;-146.25;100.00;57403.91;5027321;28;20243;-87
2023/07/03 00:55:32;;;;;;;9.35;7.50;;;;;;;-146.25;100.00;57403.91;5030642;28;20235;-86
2023/07/03 00:58:01;;;;;;;9.07;6.70;;;;;;;-146.25;100.00;57403.91;5031825;28;20200;-85
2023/07/03 01:00:39;;;;;;;9.27;6.97;;;;;;;-146.25;100.00;57403.91;5030880;28;20243;-86
2023/07/03 01:03:11;;;;;;;7.63;5.97;;;;;;;-146.25;100.00;57403.91;5031585;28;20250;-84
2023/07/03 01:05:43;;;;;;;11.60;8.45;;;;;;;-146.25;100.00;57403.91;5031851;28;20196;-85
2023/07/03 01:08:11;;;;;;;13.52;7.95;;;;;;;-146.25;100.00;57403.91;5032046;28;20314;-84
2023/07/03 01:10:40;;;;;;;10.98;8.05;;;;;;;-146.25;100.00;57403.91;5031722;28;20211;-86
2023/07/03 01:13:14;;;;;;;9.77;7.15;;;;;;;-146.25;100.00;57403.91;5031846;28;20231;-86
2023/07/03 01:15:44;;;;;;;9.68;7.40;;;;;;;-146.25;100.00;57403.91;5033268;28;20219;-86
2023/07/03 01:18:12;;;;;;;10.70;8.18;;;;;;;-146.25;100.00;57403.91;5032553;28;20234;-87
2023/07/03 01:20:44;;;;;;;16.42;7.60;;;;;;;-146.25;100.00;57403.91;5045197;28;20208;-85
2023/07/03 01:23:18;;;;;;;8.65;6.68;;;;;;;-146.25;100.00;57403.91;5053626;28;20587;-86
2023/07/03 01:25:49;;;;;;;16.52;7.40;;;;;;;-146.25;100.00;57403.91;5035843;28;20194;-85
2023/07/03 01:28:19;;;;;;;13.07;8.52;;;;;;;-146.25;100.00;57403.91;5031222;28;20221;-85
2023/07/03 01:30:48;;;;;;;10.65;7.60;;;;;;;-146.25;100.00;57403.91;5031829;28;20197;-85
2023/07/03 01:33:18;;;;;;;8.25;6.82;;;;;;;-146.25;100.00;57403.91;5030859;28;20203;-84
2023/07/03 01:35:47;;;;;;;8.68;7.07;;;;;;;-146.25;100.00;57403.91;5030458;28;20234;-85
2023/07/03 01:38:15;;;;;;;10.55;7.50;;;;;;;-146.25;100.00;57403.91;5031223;28;20207;-84
2023/07/03 01:40:42;;;;;;;9.98;6.28;;;;;;;-146.25;100.00;57403.91;5031071;28;20203;-85
2023/07/03 01:43:12;;;;;;;11.80;7.72;;;;;;;-146.25;100.00;57403.91;5031128;28;20211;-85
2023/07/03 01:45:43;;;;;;;11.07;7.22;;;;;;;-146.25;100.00;57403.91;5030879;28;20203;-86
2023/07/03 01:48:11;;;;;;;8.75;7.03;;;;;;;-146.25;100.00;57403.91;5030610;28;20207;-85
2023/07/03 01:50:39;;;;;;;10.88;7.70;;;;;;;-146.25;100.00;57403.91;5030294;28;20239;-85
2023/07/03 01:53:12;;;;;;;13.30;8.18;;;;;;;-146.25;100.00;57403.91;5030760;28;20314;-85
2023/07/03 01:55:45;;;;;;;7.97;6.28;;;;;;;-146.25;100.00;57403.91;5030066;28;20261;-85
2023/07/03 01:58:24;;;;;;;11.25;8.10;;;;;;;-146.25;100.00;57403.91;5030204;28;20275;-87
2023/07/03 02:00:55;;;;;;;9.77;7.28;;;;;;;-146.25;100.00;57403.91;5030149;28;20261;-85
2023/07/03 02:03:26;;;;;;;12.27;7.78;;;;;;;-146.25;100.00;57403.91;5030588;28;20201;-85
2023/07/03 02:05:58;;;;;;;8.70;6.90;;;;;;;-146.25;100.00;57403.91;5029139;28;20219;-84
2023/07/03 02:08:26;;;;;;;10.52;7.70;;;;;;;-146.25;100.00;57403.91;5030371;28;20207;-85
2023/07/03 02:10:54;;;;;;;11.63;7.68;;;;;;;-146.25;100.00;57403.91;5030052;28;20537;-85
2023/07/03 02:13:23;;;;;;;10.38;7.40;;;;;;;-146.25;100.00;57403.91;5030135;28;20303;-87
2023/07/03 02:15:50;;;;;;;9.25;7.57;;;;;;;-146.25;100.00;57403.91;5029515;28;20652;-85
2023/07/03 02:18:20;;;;;;;11.32;8.38;;;;;;;-146.25;100.00;57403.91;5029575;28;20602;-85
2023/07/03 02:20:50;;;;;;;7.97;6.22;;;;;;;-146.25;100.00;57403.91;5029673;28;20200;-85
2023/07/03 02:23:17;;;;;;;7.82;6.40;;;;;;;-146.25;100.00;57403.91;5030751;28;20290;-85
2023/07/03 02:25:44;;;;;;;9.90;7.55;;;;;;;-146.25;100.00;57403.91;5030095;28;20265;-86
2023/07/03 02:28:13;;;;;;;11.25;7.35;;;;;;;-146.25;100.00;57403.91;5029742;28;20376;-87
2023/07/03 02:30:41;;;;;;;8.40;6.65;;;;;;;-146.25;100.00;57403.91;5029620;28;20203;-86
2023/07/03 02:33:09;;;;;;;9.35;7.35;;;;;;;-146.25;100.00;57403.91;5030102;28;20212;-87
2023/07/03 02:35:37;;;;;;;6.85;6.05;;;;;;;-146.25;100.00;57403.91;5029060;28;20317;-84
2023/07/03 02:38:04;;;;;;;8.23;7.25;;;;;;;-146.25;100.00;57403.91;5029684;28;20364;-85
2023/07/03 02:40:31;;;;;;;9.13;7.18;;;;;;;-146.25;100.00;57403.91;5029107;28;20207;-86
2023/07/03 02:42:58;;;;;;;9.68;7.43;;;;;;;-146.25;100.00;57403.91;5029085;28;20212;-85
2023/07/03 02:45:25;;;;;;;7.90;6.50;;;;;;;-146.25;100.00;57403.91;5030299;28;20208;-86
2023/07/03 02:47:53;;;;;;;10.60;7.28;;;;;;;-146.25;100.00;57403.91;5030455;28;20201;-85
2023/07/03 02:50:20;;;;;;;11.07;7.05;;;;;;;-146.25;100.00;57403.91;5029558;28;20294;-86
2023/07/03 02:52:47;;;;;;;7.97;6.93;;;;;;;-146.25;100.00;57403.91;5029121;28;20207;-84
2023/07/03 02:55:14;;;;;;;11.93;6.18;;;;;;;-146.25;100.00;57403.91;5029461;28;20226;-86
2023/07/03 02:57:41;;;;;;;8.77;6.45;;;;;;;-146.25;100.00;57403.91;5029077;28;20208;-85
2023/07/03 03:00:11;;;;;;;10.55;6.68;;;;;;;-146.25;100.00;57403.91;5029714;28;20261;-85
2023/07/03 03:02:38;;;;;;;7.90;6.93;;;;;;;-146.25;100.00;57403.91;5028593;28;20506;-85
2023/07/03 03:05:07;;;;;;;8.50;6.55;;;;;;;-146.25;100.00;57403.91;5029240;28;20250;-87
2023/07/03 03:07:34;;;;;;;9.80;7.22;;;;;;;-146.25;100.00;57403.91;5028741;28;20292;-85
2023/07/03 03:10:01;;;;;;;9.40;7.10;;;;;;;-146.25;100.00;57403.91;5029042;28;20261;-86
2023/07/03 03:12:28;;;;;;;9.73;6.90;;;;;;;-146.25;100.00;57403.91;5028612;28;20227;-85
2023/07/03 03:14:56;;;;;;;12.90;7.28;;;;;;;-146.25;100.00;57403.91;5028963;28;20311;-87
2023/07/03 03:17:23;;;;;;;8.73;6.47;;;;;;;-146.25;100.00;57403.91;5028791;28;20196;-85
2023/07/03 03:19:51;;;;;;;8.65;6.68;;;;;;;-146.25;100.00;57403.91;5028552;28;20208;-86
2023/07/03 03:22:19;;;;;;;10.35;6.80;;;;;;;-146.25;100.00;57403.91;5029551;28;20262;-87
2023/07/03 03:24:46;;;;;;;10.32;7.63;;;;;;;-146.25;100.00;57403.91;5029073;28;20264;-85
2023/07/03 03:27:13;;;;;;;10.38;6.95;;;;;;;-146.25;100.00;57403.91;5027711;28;20208;-86
2023/07/03 03:29:40;;;;;;;9.18;6.68;;;;;;;-146.25;100.00;57403.91;5028699;28;20208;-86
2023/07/03 03:32:08;;;;;;;13.25;7.60;;;;;;;-146.25;100.00;57403.91;5038698;28;20212;-86
2023/07/03 03:34:36;;;;;;;10.52;7.28;;;;;;;-146.25;100.00;57403.91;5034089;28;20200;-85
2023/07/03 03:37:03;;;;;;;9.95;6.60;;;;;;;-146.25;100.00;57403.91;5037956;28;20306;-84
2023/07/03 03:39:31;;;;;;;7.75;6.35;;;;;;;-146.25;100.00;57403.91;5039239;28;20560;-85
2023/07/03 03:41:58;;;;;;;12.07;7.20;;;;;;;-146.25;100.00;57403.91;5038435;28;20268;-86
2023/07/03 03:44:25;;;;;;;8.82;6.88;;;;;;;-146.25;100.00;57403.91;5028336;28;20192;-86
2023/07/03 03:46:53;;;;;;;9.18;6.90;;;;;;;-146.25;100.00;57403.91;5038693;28;20212;-86
2023/07/03 03:49:21;;;;;;;14.43;6.93;;;;;;;-146.25;100.00;57403.91;5027866;28;20269;-84
2023/07/03 03:51:48;;;;;;;8.60;6.90;;;;;;;-146.25;100.00;57403.91;5028117;28;20215;-85
2023/07/03 03:54:15;;;;;;;11.52;7.32;;;;;;;-146.25;100.00;57403.91;5027717;28;20583;-85
2023/07/03 03:56:44;;;;;;;8.10;6.40;;;;;;;-146.25;100.00;57403.91;5028215;28;20281;-85
2023/07/03 03:59:11;;;;;;;11.77;6.22;;;;;;;-146.25;100.00;57403.91;5028991;28;20219;-84
2023/07/03 04:01:38;;;;;;;11.13;6.50;;;;;;;-146.25;100.00;57403.91;5027554;28;20204;-87
2023/07/03 04:04:05;;;;;;;9.85;7.28;;;;;;;-146.25;100.00;57403.91;5028120;28;20289;-85
2023/07/03 04:06:34;;;;;;;10.38;6.47;;;;;;;-146.25;100.00;57403.91;5027923;28;20693;-86
2023/07/03 04:09:02;;;;;;;8.60;6.68;;;;;;;-146.25;100.00;57403.91;5028243;28;20286;-87
2023/07/03 04:11:30;;;;;;;11.18;6.97;;;;;;;-146.25;100.00;57403.91;5027163;28;20310;-86
2023/07/03 04:13:58;;;;;;;12.30;8.23;;;;;;;-146.25;100.00;57403.91;5027927;28;20304;-85
2023/07/03 04:16:27;;;;;;;8.93;7.50;;;;;;;-146.25;100.00;57403.91;5028376;28;20271;-85
2023/07/03 04:18:54;;;;;;;10.63;7.82;;;;;;;-146.25;100.00;57403.91;5047937;28;20307;-85
2023/07/03 04:21:21;;;;;;;8.07;7.13;;;;;;;-146.25;100.00;57403.91;5046816;28;20274;-87
2023/07/03 04:23:48;;;;;;;8.93;7.03;;;;;;;-146.25;100.00;57403.91;5048282;28;20749;-86
2023/07/03 04:26:16;;;;;;;10.65;6.00;;;;;;;-146.25;100.00;57403.91;5048452;28;20649;-86
2023/07/03 04:28:43;;;;;;;9.80;7.18;;;;;;;-146.25;100.00;57403.91;5050667;28;20306;-87
2023/07/03 04:31:12;;;;;;;8.55;6.32;;;;;;;-146.25;100.00;57403.91;5053445;28;20200;-84
2023/07/03 04:33:39;;;;;;;9.80;7.10;;;;;;;-146.25;100.00;57403.91;5053017;28;20207;-86
2023/07/03 04:36:06;;;;;;;11.25;6.95;;;;;;;-146.25;100.00;57403.91;5052637;28;20227;-87
2023/07/03 04:38:33;;;;;;;11.40;7.70;;;;;;;-146.25;100.00;57403.91;5052250;28;20204;-86
2023/07/03 04:41:00;;;;;;;8.80;6.68;;;;;;;-146.25;100.00;57403.91;5052442;28;20203;-87
2023/07/03 04:43:29;;;;;;;9.20;6.85;;;;;;;-146.25;100.00;57403.91;5052549;28;20410;-85
2023/07/03 04:46:02;;;;;;;9.82;7.47;;;;;;;-146.25;100.00;57403.91;5052928;28;20203;-86
2023/07/03 04:48:31;;;;;;;16.20;6.65;;;;;;;-146.25;100.00;57403.91;5034853;28;20239;-85
2023/07/03 04:50:58;;;;;;;8.52;6.47;;;;;;;-146.25;100.00;57403.91;5033337;28;20287;-84
2023/07/03 04:53:26;;;;;;;7.00;6.25;;;;;;;-146.25;100.00;57403.91;5032844;28;20196;-85
2023/07/03 04:55:53;;;;;;;9.35;6.85;;;;;;;-146.25;100.00;57403.91;5031866;28;20285;-84
2023/07/03 04:58:21;;;;;;;8.50;5.90;;;;;;;-146.25;100.00;57403.91;5032626;28;20661;-85
2023/07/03 05:00:48;;;;;;;9.20;7.10;;;;;;;-146.25;100.00;57403.91;5031961;28;20235;-86
2023/07/03 05:03:17;;;;;;;9.65;6.70;;;;;;;-146.25;100.00;57403.91;5033909;28;20223;-86
2023/07/03 05:05:45;;;;;;;7.45;6.45;;;;;;;-146.25;100.00;57403.91;5034061;28;20248;-88
2023/07/03 05:08:12;;;;;;;6.72;5.95;;;;;;;-146.25;100.00;57403.91;5033122;28;20255;-85
2023/07/03 05:10:39;;;;;;;6.10;5.65;;;;;;;-146.25;100.00;57403.91;5032422;28;20199;-87
2023/07/03 05:13:06;;;;;;;7.15;6.38;;;;;;;-146.25;100.00;57403.91;5033003;28;20227;-85
2023/07/03 05:15:33;;;;;;;6.18;5.68;;;;;;;-146.25;100.00;57403.91;5041749;28;20184;-84
2023/07/03 05:18:01;;;;;;;6.78;6.03;;;;;;;-146.25;100.00;57403.91;5061499;28;20198;-84
2023/07/03 05:20:29;;;;;;;6.47;5.85;;;;;;;-146.25;100.00;57403.91;5059864;28;20195;-85
2023/07/03 05:22:58;;;;;;;6.90;6.05;;;;;;;-146.25;100.00;57403.91;5051625;28;20354;-85
2023/07/03 05:25:25;;;;;;;6.90;6.30;;;;;;;-146.25;100.00;57403.91;5051493;28;20625;-85
2023/07/03 05:27:52;;;;;;;6.32;5.72;;;;;;;-146.25;100.00;57403.91;5063443;28;20202;-85
2023/07/03 05:30:19;;;;;;;8.05;5.65;;;;;;;-146.25;100.00;57403.91;5052402;28;20195;-85
2023/07/03 05:32:46;;;;;;;6.50;5.95;;;;;;;-146.25;100.00;57403.91;5051079;28;20202;-85
2023/07/03 05:35:14;;;;;;;5.30;4.90;;;;;;;-146.25;100.00;57403.91;5051269;28;20187;-85
2023/07/03 05:37:41;;;;;;;7.25;5.75;;;;;;;-146.25;100.00;57403.91;5050033;28;20230;-86
2023/07/03 05:40:10;;;;;;;6.15;5.55;;;;;;;-146.25;100.00;57403.91;5049830;28;20363;-85
2023/07/03 05:42:37;;;;;;;7.85;6.70;;;;;;;-146.25;100.00;57403.91;5050581;28;20209;-85
2023/07/03 05:45:05;;;;;;;6.38;5.75;;;;;;;-146.25;100.00;57403.91;5049389;28;20205;-84
2023/07/03 05:47:35;;;;;;;6.10;5.60;;;;;;;-146.25;100.00;57403.91;5041072;28;20204;-85
2023/07/03 05:50:06;;;;;;;5.88;5.15;;;;;;;-146.25;100.00;57403.91;5030290;28;20304;-85
2023/07/03 05:52:33;;;;;;;6.28;5.72;;;;;;;-146.25;100.00;57403.91;5033789;28;20246;-85
2023/07/03 05:55:01;;;;;;;6.53;5.93;;;;;;;-146.25;100.00;57403.91;5035196;28;20203;-86
2023/07/03 05:57:29;;;;;;;5.57;5.18;;;;;;;-146.25;100.00;57403.91;5034095;28;20760;-84
2023/07/03 05:59:58;;;;;;;6.57;5.32;;;;;;;-146.25;100.00;57403.91;5032886;28;20207;-86
2023/07/03 06:02:25;;;;;;;6.18;5.22;;;;;;;-146.25;100.00;57403.91;5029650;28;20250;-86
2023/07/03 06:04:52;;;;;;;8.25;5.90;;;;;;;-146.25;100.00;57403.91;5029813;28;20669;-85
2023/07/03 06:07:19;;;;;;;6.20;5.63;;;;;;;-146.25;100.00;57403.91;5030111;28;20199;-85
2023/07/03 06:09:47;;;;;;;5.60;5.20;;;;;;;-146.25;100.00;57403.91;5028717;28;20206;-85
2023/07/03 06:12:20;;;;;;;5.10;4.68;;;;;;;-146.25;100.00;57403.91;5029811;28;20226;-86
2023/07/03 06:14:49;;;;;;;5.35;4.93;;;;;;;-146.25;100.00;57403.91;5029348;28;20204;-84
2023/07/03 06:17:16;;;;;;;5.30;4.90;;;;;;;-146.25;100.00;57403.91;5036532;28;20288;-85
2023/07/03 06:19:43;;;;;;;5.68;5.25;;;;;;;-146.25;100.00;57403.91;5049819;28;20676;-85
2023/07/03 06:22:10;;;;;;;5.47;4.97;;;;;;;-146.25;100.00;57403.91;5048795;28;20332;-86
2023/07/03 06:24:37;;;;;;;7.40;5.68;;;;;;;-146.25;100.00;57403.91;5048073;28;20203;-85
2023/07/03 06:27:06;;;;;;;7.00;5.15;;;;;;;-146.25;100.00;57403.91;5048809;28;20206;-85
2023/07/03 06:29:33;;;;;;;5.85;5.32;;;;;;;-146.25;100.00;57403.91;5049113;28;20198;-86
2023/07/03 06:32:01;;;;;;;6.47;5.13;;;;;;;-146.25;100.00;57403.91;5049367;28;20206;-85
2023/07/03 06:34:32;;;;;;;5.93;5.43;;;;;;;-146.25;100.00;57403.91;5049074;28;20229;-85
2023/07/03 06:37:00;;;;;;;5.10;4.65;;;;;;;-146.25;100.00;57403.91;5048741;28;20297;-87
2023/07/03 06:39:27;;;;;;;5.70;5.03;;;;;;;-146.25;100.00;57403.91;5048290;28;20194;-84
2023/07/03 06:41:55;;;;;;;5.63;5.22;;;;;;;-146.25;100.00;57403.91;5048657;28;20286;-87
2023/07/03 06:44:22;;;;;;;5.65;5.25;;;;;;;-146.25;100.00;57403.91;5048780;28;20199;-86
2023/07/03 06:46:50;;;;;;;5.00;4.57;;;;;;;-146.25;100.00;57403.91;5045725;28;20291;-84
2023/07/03 06:49:20;;;;;;;7.45;5.38;;;;;;;-146.25;100.00;57403.91;5028947;28;20657;-85
2023/07/03 06:51:48;;;;;;;6.28;5.68;;;;;;;-146.25;100.00;57403.91;5028689;28;20663;-85
2023/07/03 06:54:16;;;;;;;6.88;5.20;;;;;;;-146.25;100.00;57403.91;5027953;28;20223;-85
2023/07/03 06:56:43;;;;;;;5.60;5.18;;;;;;;-146.25;100.00;57403.91;5028099;28;20711;-86
2023/07/03 06:59:11;;;;;;;5.45;5.05;;;;;;;-146.25;100.00;57403.91;5028720;28;20202;-86
2023/07/03 07:01:40;;;;;;;5.43;5.03;;;;;;;-146.25;100.00;57403.91;5027943;28;20214;-85
2023/07/03 07:04:08;;;;;;;9.05;5.10;;;;;;;-146.25;100.00;57403.91;5029130;28;20199;-83
2023/07/03 07:06:36;;;;;;;6.05;5.50;;;;;;;-146.25;100.00;57403.91;5027915;28;20225;-85
2023/07/03 07:09:06;;;;;;;5.97;5.30;;;;;;;-146.25;100.00;57403.91;5027546;28;20581;-85
2023/07/03 07:11:35;;;;;;;5.13;4.82;;;;;;;-146.25;100.00;57403.91;5029753;28;20216;-85
2023/07/03 07:14:05;;;;;;;5.82;4.53;;;;;;;-146.25;100.00;57403.91;5028520;28;20199;-86
2023/07/03 07:16:36;;;;;;;4.93;4.47;;;;;;;-146.25;100.00;57403.91;5028845;28;20243;-84
2023/07/03 07:19:05;;;;;;;6.60;4.28;;;;;;;-146.25;100.00;57403.91;5048947;28;20194;-85
2023/07/03 07:21:35;;;;;;;5.40;4.88;;;;;;;-146.25;100.00;57403.91;5045089;28;20190;-84
2023/07/03 07:24:13;;;;;;;4.72;4.32;;;;;;;-146.25;100.00;57403.91;5046934;28;20206;-84
2023/07/03 07:26:42;;;;;;;7.82;4.57;;;;;;;-146.25;100.00;57403.91;5032970;28;20630;-84
2023/07/03 07:29:09;;;;;;;4.53;4.22;;;;;;;-146.25;100.00;57403.91;5036543;28;20635;-85
2023/07/03 07:31:37;;;;;;;5.38;4.97;;;;;;;-146.25;100.00;57403.91;5046399;28;20215;-85
2023/07/03 07:34:05;;;;;;;5.22;4.85;;;;;;;-146.25;100.00;57403.91;5045320;28;20222;-85
2023/07/03 07:36:32;;;;;;;6.90;4.80;;;;;;;-146.25;100.00;57403.91;5046601;28;20235;-85
2023/07/03 07:39:01;;;;;;;5.95;5.47;;;;;;;-146.25;100.00;57403.91;5045840;28;20547;-86
2023/07/03 07:41:30;;;;;;;5.75;5.35;;;;;;;-146.25;100.00;57403.91;5046750;28;20796;-84
2023/07/03 07:43:58;;;;;;;5.30;4.90;;;;;;;-146.25;100.00;57403.91;5036365;28;20227;-86
2023/07/03 07:46:28;;;;;;;5.20;4.80;;;;;;;-146.25;100.00;57403.91;5026817;28;20219;-84
2023/07/03 07:48:57;;;;;;;4.57;4.28;;;;;;;-146.25;100.00;57403.91;5025864;28;20219;-84
2023/07/03 07:51:25;;;;;;;5.00;4.70;;;;;;;-146.25;100.00;57403.91;5027269;28;20773;-84
2023/07/03 07:53:53;;;;;;;5.53;4.25;;;;;;;-146.25;100.00;57403.91;5030944;28;20220;-86
2023/07/03 07:56:21;;;;;;;6.85;5.40;;;;;;;-146.25;100.00;57403.91;5026997;28;20308;-86
2023/07/03 07:58:51;;;;;;;5.03;4.57;;;;;;;-146.25;100.00;57403.91;5026870;28;20234;-86
2023/07/03 08:01:19;;;;;;;5.70;5.20;;;;;;;-146.25;100.00;57403.91;5027529;28;20546;-85
2023/07/03 08:03:46;;;;;;;5.00;4.45;;;;;;;-146.25;100.00;57403.91;5028153;28;20223;-86
2023/07/03 08:06:14;;;;;;;4.78;4.47;;;;;;;-146.25;100.00;57403.91;5030812;28;20227;-86
2023/07/03 08:08:42;;;;;;;5.95;5.43;;;;;;;-146.25;100.00;57403.91;5030969;28;20300;-84
2023/07/03 08:11:10;;;;;;;4.60;4.20;;;;;;;-146.25;100.00;57403.91;5041103;28;20254;-84
2023/07/03 08:13:38;;;;;;;5.28;4.78;;;;;;;-146.25;100.00;57403.91;5051540;28;20199;-84
2023/07/03 08:16:08;;;;;;;5.68;5.03;;;;;;;-146.25;100.00;57403.91;5051833;28;20258;-85
2023/07/03 08:18:35;;;;;;;4.15;3.90;;;;;;;-146.25;100.00;57403.91;5033875;28;20312;-85
2023/07/03 08:21:02;;;;;;;6.85;4.45;;;;;;;-146.25;100.00;57403.91;5031696;28;20206;-84
2023/07/03 08:23:29;;;;;;;4.45;4.25;;;;;;;-146.25;100.00;57403.91;5031366;28;20208;-86
2023/07/03 08:25:56;;;;;;;5.45;5.05;;;;;;;-146.25;100.00;57403.91;5030579;28;20203;-85
2023/07/03 08:28:23;;;;;;;4.97;4.45;;;;;;;-146.25;100.00;57403.91;5029135;28;20211;-85
2023/07/03 08:30:51;;;;;;;4.13;3.92;;;;;;;-146.25;100.00;57403.91;5029951;28;20258;-84
2023/07/03 08:33:22;;;;;;;5.20;4.60;;;;;;;-146.25;100.00;57403.91;5029593;28;20196;-84
2023/07/03 08:35:49;;;;;;;5.32;4.80;;;;;;;-146.25;100.00;57403.91;5029245;28;20633;-85
2023/07/03 08:38:16;;;;;;;5.43;4.90;;;;;;;-146.25;100.00;57403.91;5028459;28;20261;-85
2023/07/03 08:40:43;;;;;;;4.55;4.20;;;;;;;-146.25;100.00;57403.91;5030650;28;20204;-86
2023/07/03 08:43:14;;;;;;;4.70;4.40;;;;;;;-146.25;100.00;57403.91;5030795;28;20683;-87
2023/07/03 08:45:44;;;;;;;4.57;4.15;;;;;;;-146.25;100.00;57403.91;5031039;28;20192;-86
2023/07/03 08:48:16;;;;;;;4.93;4.60;;;;;;;-146.25;100.00;57403.91;5030704;28;20261;-86
2023/07/03 08:50:47;;;;;;;4.55;3.83;;;;;;;-146.25;100.00;57403.91;5031115;28;20231;-88
2023/07/03 08:53:18;;;;;;;4.45;4.22;;;;;;;-146.25;100.00;57403.91;5031597;28;20195;-86
2023/07/03 08:55:49;;;;;;;4.57;3.60;;;;;;;-146.25;100.00;57403.91;5031638;28;20210;-85
2023/07/03 08:58:16;;;;;;;4.32;3.97;;;;;;;-146.25;100.00;57403.91;5030699;28;20277;-84
2023/07/03 09:01:08;;;;;;;4.13;3.92;;;;;;;-146.25;100.00;57403.91;5030436;28;20210;-86
2023/07/03 09:03:45;;;;;;;3.95;3.67;;;;;;;-146.25;100.00;57403.91;5034138;28;20192;-84
2023/07/03 09:06:21;;;;;;;3.78;3.58;;;;;;;-146.25;100.00;57403.91;5031176;28;20663;-85
2023/07/03 09:08:58;;;;;;;4.35;3.95;;;;;;;-146.25;100.00;57403.91;5032006;28;20237;-86
2023/07/03 09:11:30;;;;;;;4.10;3.90;;;;;;;-146.25;100.00;57403.91;5032699;28;20223;-86
2023/07/03 09:14:01;;;;;;;4.88;4.57;;;;;;;-146.25;100.00;57403.91;5031827;28;20210;-87
2023/07/03 09:16:29;;;;;;;4.35;4.03;;;;;;;-146.25;100.00;57403.91;5031372;28;20644;-86
2023/07/03 09:19:00;;;;;;;4.60;3.85;;;;;;;-146.25;100.00;57403.91;5030879;28;20227;-86
2023/07/03 09:21:30;;;;;;;6.28;3.97;;;;;;;-146.25;100.00;57403.91;5031053;28;20673;-86
2023/07/03 09:24:01;;;;;;;4.68;4.32;;;;;;;-146.25;100.00;57403.91;5030613;28;20368;-86
2023/07/03 09:26:37;;;;;;;4.15;3.95;;;;;;;-146.25;100.00;57403.91;5030308;28;20203;-86
2023/07/03 09:29:05;;;;;;;4.72;4.43;;;;;;;-146.25;100.00;57403.91;5030924;28;20187;-86
2023/07/03 09:31:33;;;;;;;4.68;4.35;;;;;;;-146.25;100.00;57403.91;5031792;28;20280;-86
2023/07/03 09:34:00;;;;;;;4.05;3.75;;;;;;;-146.25;100.00;57403.91;5032059;28;20211;-86
2023/07/03 09:36:34;;;;;;;3.85;3.55;;;;;;;-146.25;100.00;57403.91;5051126;28;20195;-85
2023/07/03 09:39:09;;;;;;;3.85;3.65;;;;;;;-146.25;100.00;57403.91;5044556;28;20220;-86
2023/07/03 09:41:36;;;;;;;4.90;4.38;;;;;;;-146.25;100.00;57403.91;5030869;28;20203;-85
2023/07/03 09:44:08;;;;;;;3.63;3.40;;;;;;;-146.25;100.00;57403.91;5030316;28;20196;-87
2023/07/03 09:46:36;;;;;;;4.18;3.88;;;;;;;-146.25;100.00;57403.91;5030670;28;20234;-87
2023/07/03 09:49:03;;;;;;;4.07;3.78;;;;;;;-146.25;100.00;57403.91;5040337;28;20306;-86
2023/07/03 09:51:32;;;;;;;4.50;4.07;;;;;;;-146.25;100.00;57403.91;5039425;28;20282;-85
2023/07/03 09:54:05;;;;;;;4.18;3.88;;;;;;;-146.25;100.00;57403.91;5044705;28;20302;-86
2023/07/03 09:56:32;;;;;;;5.13;4.10;;;;;;;-146.25;100.00;57403.91;5035335;28;20281;-85
2023/07/03 09:59:02;;;;;;;3.42;3.22;;;;;;;-146.25;100.00;57403.91;5026545;28;20234;-84
2023/07/03 10:01:31;;;;;;;3.83;3.53;;;;;;;-146.25;100.00;57403.91;5026669;28;20247;-88
2023/07/03 10:04:05;;;;;;;4.10;3.63;;;;;;;-146.25;100.00;57403.91;5022586;28;20240;-87
2023/07/03 10:06:34;;;;;;;4.07;3.75;;;;;;;-146.25;100.00;57403.91;5027428;28;20684;-87
2023/07/03 10:09:04;;;;;;;4.47;4.13;;;;;;;-146.25;100.00;57403.91;5044019;28;20310;-86
2023/07/03 10:11:39;;;;;;;3.95;3.65;;;;;;;-146.25;100.00;57403.91;5057196;28;20321;-86
2023/07/03 10:14:09;;;;;;;4.20;3.85;;;;;;;-146.25;100.00;57403.91;5068179;28;20280;-87
2023/07/03 10:16:39;;;;;;;4.97;4.35;;;;;;;-146.25;100.00;57403.91;5069001;28;20230;-86
2023/07/03 10:19:06;;;;;;;4.43;4.13;;;;;;;-146.25;100.00;57403.91;5067361;28;21015;-85
2023/07/03 10:21:36;;;;;;;4.38;4.07;;;;;;;-146.25;100.00;57403.91;5069455;28;20252;-86
2023/07/03 10:24:03;;;;;;;4.63;4.32;;;;;;;-146.25;100.00;57403.91;5067317;28;20687;-87
2023/07/03 10:26:36;;;;;;;3.70;3.42;;;;;;;-146.25;100.00;57403.91;5066632;28;20633;-85
2023/07/03 10:29:10;;;;;;;3.95;3.75;;;;;;;-146.25;100.00;57403.91;5068573;28;20283;-86
2023/07/03 10:31:42;;;;;;;4.80;3.80;;;;;;;-146.25;100.00;57403.91;5068197;28;20231;-88
2023/07/03 10:34:19;;;;;;;4.00;3.40;;;;;;;-146.25;100.00;57403.91;5067517;28;20222;-85
2023/07/03 10:36:51;;;;;;;4.55;4.18;;;;;;;-146.25;100.00;57403.91;5066634;28;20224;-86
2023/07/03 10:39:25;;;;;;;4.65;3.47;;;;;;;-146.25;100.00;57403.91;5048079;28;20348;-87
2023/07/03 10:41:56;;;;;;;4.32;3.83;;;;;;;-146.25;100.00;57403.91;5046832;28;20220;-85
2023/07/03 10:44:28;;;;;;;3.78;3.58;;;;;;;-146.25;100.00;57403.91;5047767;28;20536;-85
2023/07/03 10:47:00;;;;;;;3.42;3.20;;;;;;;-146.25;100.00;57403.91;5047654;28;20235;-84
2023/07/03 10:49:29;;;;;;;4.28;3.75;;;;;;;-146.25;100.00;57403.91;5046944;28;20301;-86
2023/07/03 10:52:10;;;;;;;3.97;2.97;;;;;;;-146.25;100.00;57403.91;5046937;28;20235;-86
2023/07/03 10:54:45;;;;;;;3.70;3.50;;;;;;;-146.25;100.00;57403.91;5047424;28;20321;-84
2023/07/03 10:57:18;;;;;;;3.47;2.92;;;;;;;-146.25;100.00;57403.91;5046439;28;20214;-86
2023/07/03 10:59:51;;;;;;;4.03;3.75;;;;;;;-146.25;100.00;57403.91;5046387;28;20719;-85
2023/07/03 11:02:28;;;;;;;3.42;3.22;;;;;;;-146.25;100.00;57403.91;5047413;28;20215;-84
2023/07/03 11:05:03;;;;;;;4.57;4.18;;;;;;;-146.25;100.00;57403.91;5046514;28;20358;-85
2023/07/03 11:07:39;;;;;;;3.40;3.13;;;;;;;-146.25;100.00;57403.91;5046768;28;20278;-85
2023/07/03 11:10:17;;;;;;;4.38;3.83;;;;;;;-146.25;100.00;57403.91;5047516;28;20223;-85
2023/07/03 11:12:53;;;;;;;3.28;3.08;;;;;;;-146.25;100.00;57403.91;5046138;28;20547;-86
2023/07/03 11:15:30;;;;;;;3.67;3.38;;;;;;;-146.25;100.00;57403.91;5045830;28;20226;-86